Main page
METAR-TAF:

METAR-TAF

Airports :

Ilorin, Nigeria

Ilorin International Airport

latitude: 08-29N, longitude: 004-35E, elevation: 308 m

METAR: missing

Time: 22:38 (21:38 UTC)

Forecast

The report was made 5 hours and 58 minutes ago, at 15:40 UTC
Forecast valid from 23 at 18 UTC to 24 at 24 UTC
Wind 5 kt from the East/Northeast
Visibility: 5000 m
haze
Temporary
from 24 at 03 UTC to 24 at 08 UTC
Wind 10 kt from the North/Northeast
Visibility: 3000 m

TAF: DNIL 231540Z 2318/2424 07005KT 5000 HZ NSC TEMPO 2403/2408 03010KT 3000

Weather observations and forecasts of more than 4000 airports (METAR and TAF reports).

The available stations are represented by yellow and red dots on the map.

Hover mouse over dot to see the name of the station.

Then click to see weather observations and forecasts.

To change the map : click on the green buttons with a black cross to zoom in, on the green button with a dash to zoom out, or on the green arrows for adjacent maps.


METAR-TAF: